createdAt,value
2016-03-07T08:49:48.232Z,18752
2016-03-07T08:50:01.951Z,18816
2016-03-07T08:50:17.127Z,18944
2016-03-07T08:50:30.939Z,19040
2016-03-07T08:50:44.705Z,19136
2016-03-07T08:50:58.517Z,19328
2016-03-07T08:51:15.207Z,19616
2016-03-07T08:51:29.019Z,20128
2016-03-07T08:51:42.769Z,20736
2016-03-07T08:51:56.504Z,21536
2016-03-07T08:52:10.210Z,22208
2016-03-07T08:52:23.913Z,22752
2016-03-07T08:52:40.772Z,23168
2016-03-07T08:52:54.726Z,23520
2016-03-07T08:53:08.462Z,24064
2016-03-07T08:53:22.321Z,24768
2016-03-07T08:53:36.056Z,25536
2016-03-07T08:53:49.587Z,26176
2016-03-07T08:54:03.337Z,27040
2016-03-07T08:54:17.465Z,28000
2016-03-07T08:54:31.309Z,28640
2016-03-07T08:54:45.137Z,29120
2016-03-07T08:54:58.965Z,29376
2016-03-07T08:55:12.484Z,29408
2016-03-07T08:55:29.171Z,29248
2016-03-07T08:55:42.655Z,29184
2016-03-07T08:55:56.437Z,29056
2016-03-07T08:56:10.517Z,28800
2016-03-07T08:56:24.579Z,28992
2016-03-07T08:56:40.532Z,29568
2016-03-07T08:56:54.236Z,29152
2016-03-07T08:57:08.251Z,28288
2016-03-07T08:57:22.317Z,27840
2016-03-07T08:57:36.020Z,28224
2016-03-07T08:57:49.895Z,28736
2016-03-07T08:58:03.582Z,29568
2016-03-07T08:58:20.242Z,30688
2016-03-07T08:58:33.913Z,31424
2016-03-07T08:58:48.054Z,31008
2016-03-07T08:59:02.757Z,29408
2016-03-07T08:59:16.510Z,28256
2016-03-07T08:59:30.354Z,27744
2016-03-07T08:59:44.010Z,26880
2016-03-07T09:00:00.870Z,26240
2016-03-07T09:00:15.106Z,27200
2016-03-07T09:00:28.856Z,29088
2016-03-07T09:00:42.590Z,28288
2016-03-07T09:00:56.340Z,28224
2016-03-07T09:01:10.312Z,28416
2016-03-07T09:01:24.125Z,27904
2016-03-07T09:01:37.765Z,28224
2016-03-07T09:01:51.593Z,29088
2016-03-07T09:02:05.406Z,29952
2016-03-07T09:02:19.111Z,30944
2016-03-07T09:02:32.814Z,31360
2016-03-07T09:02:46.580Z,31104
2016-03-07T09:03:00.298Z,31040
2016-03-07T09:03:14.162Z,31136
2016-03-07T09:03:27.990Z,30816
2016-03-07T09:03:42.693Z,29760
2016-03-07T09:03:56.662Z,28256
2016-03-07T09:04:10.289Z,27136
2016-03-07T09:04:24.726Z,27136
2016-03-07T09:04:38.383Z,27424
2016-03-07T09:04:52.070Z,27808
2016-03-07T09:05:06.242Z,27968
2016-03-07T09:05:20.026Z,27648
2016-03-07T09:05:33.870Z,27552
2016-03-07T09:05:47.495Z,28160
2016-03-07T09:06:01.339Z,28992
2016-03-07T09:06:15.092Z,30048
2016-03-07T09:06:28.935Z,30624
2016-03-07T09:06:42.623Z,31264
2016-03-07T09:06:56.248Z,31872
2016-03-07T09:07:10.281Z,32800
2016-03-07T09:07:24.031Z,33728
2016-03-07T09:07:38.047Z,34848
2016-03-07T09:07:51.672Z,35584
2016-03-07T09:08:05.328Z,35328
2016-03-07T09:08:19.409Z,33920
2016-03-07T09:08:33.425Z,32960
2016-03-07T09:08:47.362Z,33280
2016-03-07T09:09:01.378Z,33376
2016-03-07T09:09:15.083Z,33312
2016-03-07T09:09:28.599Z,33216
2016-03-07T09:09:42.614Z,33056
2016-03-07T09:09:56.302Z,33664
2016-03-07T09:10:10.055Z,35104
2016-03-07T09:10:23.539Z,37696
2016-03-07T09:10:37.492Z,38784
2016-03-07T09:10:51.242Z,38112
2016-03-07T09:11:19.011Z,33888
2016-03-07T09:11:32.730Z,31904
2016-03-07T09:11:46.433Z,30880
2016-03-07T09:12:00.120Z,30624
2016-03-07T09:12:17.076Z,31456
2016-03-07T09:12:30.748Z,32448
2016-03-07T09:12:44.530Z,33792
2016-03-07T09:12:58.186Z,34496
2016-03-07T09:13:15.172Z,34144
2016-03-07T09:13:28.860Z,33632
2016-03-07T09:13:42.719Z,33504
2016-03-07T09:13:56.391Z,32256
2016-03-07T09:14:10.769Z,30784
2016-03-07T09:14:24.535Z,29312
2016-03-07T09:14:38.238Z,28224
2016-03-07T09:14:52.238Z,27680
2016-03-07T09:15:06.269Z,27296
2016-03-07T09:15:47.928Z,28480
2016-03-07T09:16:01.631Z,30080
2016-03-07T09:16:15.571Z,32000
2016-03-07T09:16:29.961Z,33504
2016-03-07T09:16:44.227Z,33888
2016-03-07T09:16:57.930Z,33664
2016-03-07T09:17:11.855Z,35328
2016-03-07T09:17:25.886Z,40352
2016-03-07T09:17:39.574Z,44128
2016-03-07T09:17:53.277Z,42848
2016-03-07T09:18:06.808Z,39840
2016-03-07T09:18:20.561Z,36320
2016-03-07T09:18:34.280Z,33280
2016-03-07T09:18:51.014Z,30976
2016-03-07T09:19:04.967Z,29952
2016-03-07T09:19:18.611Z,28640
2016-03-07T09:19:32.377Z,27392
2016-03-07T09:19:46.064Z,26976
2016-03-07T09:19:59.799Z,27008
2016-03-07T09:20:13.394Z,27264
2016-03-07T09:20:30.957Z,27584
2016-03-07T09:20:44.613Z,27296
2016-03-07T09:20:58.363Z,26848
2016-03-07T09:21:15.038Z,26560
2016-03-07T09:21:28.741Z,26720
2016-03-07T09:21:45.679Z,26816
2016-03-07T09:21:59.632Z,27008
2016-03-07T09:22:13.400Z,27200
2016-03-07T09:22:27.322Z,27392
2016-03-07T09:22:41.182Z,27520
2016-03-07T09:22:55.525Z,27296
2016-03-07T09:23:12.372Z,27040
2016-03-07T09:23:25.888Z,26848
2016-03-07T09:23:39.638Z,26976
2016-03-07T09:23:53.403Z,27168
2016-03-07T09:24:07.106Z,27392
2016-03-07T09:24:20.904Z,27680
2016-03-07T09:24:34.717Z,28064
2016-03-07T09:24:48.670Z,28480
2016-03-07T09:25:05.826Z,28704
2016-03-07T09:25:19.595Z,29184
2016-03-07T09:25:33.595Z,29184
2016-03-07T09:25:47.407Z,29088
2016-03-07T09:26:01.001Z,28832
2016-03-07T09:26:14.692Z,28544
2016-03-07T09:26:28.473Z,28384
2016-03-07T09:26:42.410Z,27968
2016-03-07T09:27:26.866Z,27456
2016-03-07T09:27:40.820Z,28256
2016-03-07T09:27:54.601Z,28992
2016-03-07T09:28:08.351Z,29120
2016-03-07T09:28:21.290Z,28864
2016-03-07T09:28:35.181Z,28160
2016-03-07T09:28:49.009Z,27264
2016-03-07T09:29:02.540Z,26656
2016-03-07T09:29:16.809Z,26432
2016-03-07T09:29:30.746Z,26720
2016-03-07T09:29:44.387Z,27552
2016-03-07T09:30:01.231Z,29280
2016-03-07T09:30:14.843Z,30880
2016-03-07T09:30:31.703Z,32832
2016-03-07T09:30:45.453Z,33728
2016-03-07T09:30:59.124Z,33824
2016-03-07T09:31:12.831Z,33504
2016-03-07T09:31:26.674Z,33152
2016-03-07T09:31:40.643Z,32992
2016-03-07T09:31:54.331Z,32832
2016-03-07T09:32:08.362Z,32288
2016-03-07T09:32:22.614Z,31712
2016-03-07T09:32:50.504Z,31552
2016-03-07T09:33:04.176Z,31904
2016-03-07T09:33:18.054Z,32768
2016-03-07T09:33:31.695Z,34144
2016-03-07T09:33:48.382Z,35808
2016-03-07T09:34:02.320Z,35584
2016-03-07T09:34:16.167Z,35104
2016-03-07T09:34:29.917Z,34688
2016-03-07T09:34:43.589Z,33952
2016-03-07T09:34:56.823Z,33152
2016-03-07T09:35:13.810Z,32096
2016-03-07T09:35:27.701Z,31296
2016-03-07T09:35:41.342Z,30656
2016-03-07T09:35:54.888Z,30336
2016-03-07T09:36:08.875Z,30272
2016-03-07T09:36:22.719Z,30208
2016-03-07T09:36:39.234Z,30208
2016-03-07T09:36:52.937Z,30080
2016-03-07T09:37:06.656Z,29920
2016-03-07T09:37:20.221Z,30176
2016-03-07T09:37:33.939Z,30464
2016-03-07T09:37:50.549Z,29696
2016-03-07T09:38:04.205Z,29024
2016-03-07T09:38:23.849Z,28480
2016-03-07T09:38:40.520Z,28032
2016-03-07T09:38:54.411Z,28032
2016-03-07T09:39:11.086Z,28384
2016-03-07T09:39:27.727Z,29216
2016-03-07T09:39:41.102Z,29600
2016-03-07T09:39:54.805Z,29472
2016-03-07T09:40:08.695Z,29408
2016-03-07T09:40:22.339Z,29408
2016-03-07T09:40:35.964Z,29504
2016-03-07T09:40:52.542Z,29472
2016-03-07T09:41:06.151Z,28992
2016-03-07T09:41:20.123Z,28320
2016-03-07T09:41:33.889Z,27936
2016-03-07T09:41:47.529Z,27808
2016-03-07T09:42:01.858Z,27808
2016-03-07T09:42:15.486Z,27648
2016-03-07T09:42:29.626Z,27680
2016-03-07T09:42:43.376Z,27904
2016-03-07T09:43:00.095Z,27712
2016-03-07T09:43:13.956Z,27488
2016-03-07T09:43:27.769Z,27584
2016-03-07T09:43:41.550Z,27552
2016-03-07T09:43:55.316Z,27232
2016-03-07T09:44:09.006Z,27136
2016-03-07T09:44:22.725Z,26720
2016-03-07T09:44:36.694Z,26528
2016-03-07T09:44:53.287Z,26976
2016-03-07T09:45:07.053Z,27552
2016-03-07T09:45:20.072Z,27776
2016-03-07T09:45:33.837Z,27488
2016-03-07T09:45:47.353Z,27104
2016-03-07T09:46:01.369Z,26816
2016-03-07T09:46:29.246Z,26688
2016-03-07T09:46:42.980Z,26752
2016-03-07T09:46:55.980Z,26880
2016-03-07T09:47:09.811Z,27168
2016-03-07T09:47:23.889Z,27424
2016-03-07T09:47:38.405Z,27616
2016-03-07T09:47:52.358Z,28032
2016-03-07T09:48:06.045Z,28576
2016-03-07T09:48:19.860Z,28480
2016-03-07T09:48:33.110Z,27968
2016-03-07T09:48:46.594Z,27296
2016-03-07T09:49:00.422Z,26976
2016-03-07T09:49:17.222Z,27264
2016-03-07T09:49:31.457Z,27680
2016-03-07T09:49:45.129Z,28064
2016-03-07T09:49:58.894Z,28192
2016-03-07T09:50:15.709Z,28032
2016-03-07T09:50:29.334Z,27648
2016-03-07T09:50:42.287Z,26944
2016-03-07T09:50:56.084Z,26624
2016-03-07T09:51:10.212Z,26624
2016-03-07T09:51:23.899Z,26816
2016-03-07T09:51:37.649Z,27104
2016-03-07T09:51:51.243Z,27456
2016-03-07T09:52:04.852Z,27712
2016-03-07T09:52:18.652Z,28032
2016-03-07T09:52:32.277Z,28544
2016-03-07T09:52:46.230Z,29440
2016-03-07T09:53:00.121Z,30944
2016-03-07T09:53:14.108Z,32032
2016-03-07T09:53:27.952Z,32608
2016-03-07T09:53:42.046Z,31840
2016-03-07T09:53:55.858Z,31584
2016-03-07T09:54:10.064Z,31424
2016-03-07T09:54:23.580Z,31872
2016-03-07T09:54:40.330Z,32864
2016-03-07T09:54:53.830Z,33472
2016-03-07T09:55:07.486Z,34592
2016-03-07T09:55:21.270Z,38176
2016-03-07T09:55:35.020Z,38240
2016-03-07T09:55:49.129Z,36928
2016-03-07T09:56:20.038Z,32320
2016-03-07T09:56:36.757Z,30080
2016-03-07T09:56:53.382Z,28896
2016-03-07T09:57:10.307Z,28800
2016-03-07T09:57:23.947Z,29632
2016-03-07T09:57:38.072Z,30944
2016-03-07T09:57:51.901Z,33472
2016-03-07T09:58:05.651Z,36736
2016-03-07T09:58:19.497Z,36928
2016-03-07T09:58:36.122Z,33216
2016-03-07T09:58:49.997Z,31904
2016-03-07T09:59:17.796Z,30976
2016-03-07T09:59:31.624Z,31328
2016-03-07T09:59:45.499Z,32160
2016-03-07T10:00:02.624Z,32928
2016-03-07T10:00:16.315Z,32928
2016-03-07T10:00:30.268Z,31872
2016-03-07T10:00:44.362Z,31712
2016-03-07T10:00:58.393Z,32416
2016-03-07T10:01:12.490Z,32864
2016-03-07T10:01:26.130Z,31904
2016-03-07T10:01:39.880Z,31648
2016-03-07T10:01:54.208Z,31552
2016-03-07T10:02:07.927Z,31360
2016-03-07T10:02:21.664Z,31328
2016-03-07T10:02:35.304Z,31296
2016-03-07T10:02:48.945Z,31264
2016-03-07T10:03:02.601Z,31456
2016-03-07T10:03:16.416Z,31712
2016-03-07T10:03:30.056Z,32352
2016-03-07T10:03:47.041Z,33184
2016-03-07T10:04:00.962Z,32768
2016-03-07T10:04:14.887Z,32864
2016-03-07T10:04:28.590Z,33184
2016-03-07T10:04:56.669Z,33536
2016-03-07T10:05:10.559Z,32256
2016-03-07T10:05:24.343Z,31360
2016-03-07T10:05:38.282Z,31232
2016-03-07T10:05:52.110Z,31712
2016-03-07T10:06:06.985Z,32640
2016-03-07T10:06:20.504Z,32832
2016-03-07T10:06:34.082Z,32480
2016-03-07T10:06:47.863Z,31968
2016-03-07T10:07:04.644Z,31968
2016-03-07T10:07:24.537Z,34080
2016-03-07T10:07:38.240Z,34816
2016-03-07T10:08:06.318Z,32992
2016-03-07T10:08:20.399Z,32864
2016-03-07T10:08:37.181Z,33408
2016-03-07T10:08:50.962Z,34752
2016-03-07T10:09:04.509Z,38432
2016-03-07T10:09:18.105Z,42880
2016-03-07T10:09:32.402Z,40288
2016-03-07T10:09:46.480Z,38336
2016-03-07T10:10:00.105Z,36544
2016-03-07T10:10:14.170Z,35168
2016-03-07T10:10:28.061Z,33952
2016-03-07T10:10:48.123Z,33696
2016-03-07T10:11:01.826Z,34368
2016-03-07T10:11:15.517Z,37024
2016-03-07T10:11:29.064Z,45088
2016-03-07T10:11:42.829Z,48800
2016-03-07T10:11:56.251Z,57728
2016-03-07T10:12:09.939Z,47360
2016-03-07T10:12:26.567Z,39424
2016-03-07T10:12:43.379Z,35232
2016-03-07T10:12:58.176Z,33856
2016-03-07T10:13:11.848Z,33600
2016-03-07T10:13:28.537Z,35328
2016-03-07T10:13:42.256Z,38464
2016-03-07T10:13:56.053Z,41920
2016-03-07T10:14:12.837Z,41440
2016-03-07T10:14:26.540Z,37824
2016-03-07T10:14:40.368Z,35648
2016-03-07T10:14:57.118Z,35264
2016-03-07T10:15:13.590Z,35616
2016-03-07T10:15:27.575Z,36096
2016-03-07T10:15:41.231Z,35456
2016-03-07T10:16:09.137Z,37088
2016-03-07T10:16:23.343Z,37760
2016-03-07T10:16:37.171Z,37408
2016-03-07T10:16:50.687Z,38816
2016-03-07T10:17:04.671Z,38016
2016-03-07T10:17:18.346Z,33408
2016-03-07T10:17:34.971Z,33056
2016-03-07T10:17:48.690Z,32416
2016-03-07T10:18:02.627Z,31424
2016-03-07T10:18:19.302Z,31328
2016-03-07T10:18:36.115Z,32064
2016-03-07T10:18:52.662Z,33024
2016-03-07T10:19:06.787Z,31392
2016-03-07T10:19:20.493Z,30496
2016-03-07T10:19:34.258Z,30144
2016-03-07T10:19:47.946Z,29664
2016-03-07T10:20:01.712Z,29696
2016-03-07T10:20:15.386Z,30048
2016-03-07T10:20:29.074Z,30496
2016-03-07T10:20:42.730Z,30624
2016-03-07T10:20:56.402Z,30304
2016-03-07T10:21:10.496Z,30336
2016-03-07T10:21:24.513Z,30496
2016-03-07T10:21:38.217Z,30912
2016-03-07T10:21:55.248Z,30912
2016-03-07T10:22:09.263Z,30560
2016-03-07T10:22:23.126Z,30176
2016-03-07T10:22:40.110Z,29888
2016-03-07T10:22:53.782Z,29824
2016-03-07T10:23:07.595Z,29728
2016-03-07T10:23:21.065Z,29248
2016-03-07T10:23:35.018Z,29536
2016-03-07T10:23:48.612Z,29728
2016-03-07T10:24:16.507Z,30496
2016-03-07T10:24:57.632Z,33632
2016-03-07T10:25:11.382Z,38112
2016-03-07T10:25:27.618Z,38656
2016-03-07T10:25:41.493Z,34432
2016-03-07T10:26:09.087Z,33696
2016-03-07T10:26:22.777Z,33952
2016-03-07T10:26:36.512Z,33536
2016-03-07T10:26:53.309Z,32544
2016-03-07T10:27:07.027Z,32736
2016-03-07T10:27:20.498Z,32704
2016-03-07T10:27:34.029Z,32928
2016-03-07T10:27:47.748Z,33408
2016-03-07T10:28:01.764Z,33344
2016-03-07T10:28:15.486Z,33152
2016-03-07T10:28:32.486Z,33312
2016-03-07T10:28:46.829Z,33376
2016-03-07T10:29:00.407Z,33536
2016-03-07T10:29:14.145Z,33440
2016-03-07T10:29:27.489Z,33728
2016-03-07T10:29:41.379Z,34272
2016-03-07T10:29:55.176Z,34592
2016-03-07T10:30:08.817Z,34944
2016-03-07T10:30:22.148Z,34912
2016-03-07T10:30:35.757Z,34816
2016-03-07T10:30:49.851Z,34912
2016-03-07T10:31:03.601Z,34848
2016-03-07T10:31:17.728Z,34816
2016-03-07T10:31:31.978Z,35008
2016-03-07T10:31:45.759Z,34720
2016-03-07T10:31:59.775Z,34688
2016-03-07T10:32:12.997Z,34272
2016-03-07T10:32:26.731Z,33920
2016-03-07T10:32:40.747Z,33536
2016-03-07T10:32:54.575Z,33312
2016-03-07T10:33:11.247Z,33184
2016-03-07T10:33:25.093Z,33216
2016-03-07T10:33:38.859Z,33344
2016-03-07T10:33:52.796Z,33472
2016-03-07T10:34:06.390Z,33664
2016-03-07T10:34:20.017Z,33696
2016-03-07T10:34:33.486Z,33728
2016-03-07T10:34:47.064Z,33760
2016-03-07T10:35:00.642Z,33888
2016-03-07T10:35:14.630Z,34272
2016-03-07T10:35:29.286Z,34752
2016-03-07T10:35:43.098Z,35264
2016-03-07T10:35:56.989Z,35872
2016-03-07T10:36:10.786Z,37120
2016-03-07T10:36:24.835Z,36800
2016-03-07T10:36:38.475Z,36000
2016-03-07T10:36:52.272Z,35616
2016-03-07T10:37:06.303Z,35360
2016-03-07T10:37:20.150Z,35168
2016-03-07T10:37:36.931Z,34688
2016-03-07T10:38:04.697Z,33952
2016-03-07T10:38:18.481Z,33664
2016-03-07T10:38:35.231Z,33696
2016-03-07T10:38:48.856Z,32960
2016-03-07T10:39:05.794Z,32256
2016-03-07T10:39:22.625Z,31936
2016-03-07T10:39:36.531Z,31776
2016-03-07T10:40:18.736Z,32480
2016-03-07T10:40:31.596Z,32736
2016-03-07T10:40:45.424Z,32928
2016-03-07T10:40:59.189Z,32928
2016-03-07T10:41:13.067Z,33088
2016-03-07T10:41:26.708Z,33312
2016-03-07T10:41:40.567Z,33344
2016-03-07T10:41:54.552Z,33472
2016-03-07T10:42:08.255Z,33856
2016-03-07T10:42:22.649Z,34208
2016-03-07T10:42:36.211Z,34624
2016-03-07T10:42:49.836Z,34368
2016-03-07T10:43:03.555Z,33696
2016-03-07T10:43:17.354Z,33376
2016-03-07T10:43:31.479Z,33280
2016-03-07T10:43:45.385Z,33312
2016-03-07T10:43:58.932Z,33088
2016-03-07T10:44:11.947Z,33088
2016-03-07T10:44:39.763Z,32704
2016-03-07T10:44:53.482Z,32640
2016-03-07T10:45:07.482Z,32960
2016-03-07T10:45:24.250Z,33792
2016-03-07T10:45:52.094Z,34208
2016-03-07T10:46:05.907Z,33792
2016-03-07T10:46:22.785Z,33856
2016-03-07T10:46:36.316Z,34080
2016-03-07T10:46:50.097Z,34016
2016-03-07T10:47:03.925Z,33216
2016-03-07T10:47:17.755Z,32704
2016-03-07T10:47:31.412Z,32672
2016-03-07T10:47:45.271Z,32800
2016-03-07T10:47:58.958Z,33056
2016-03-07T10:48:16.118Z,32608
2016-03-07T10:48:29.930Z,32512
2016-03-07T10:48:43.524Z,32256
2016-03-07T10:48:57.571Z,32064
2016-03-07T10:49:11.540Z,32800
2016-03-07T10:49:25.214Z,33472
2016-03-07T10:49:38.886Z,33792
2016-03-07T10:49:52.621Z,33920
2016-03-07T10:50:06.464Z,34336
2016-03-07T10:50:20.138Z,34336
2016-03-07T10:50:33.607Z,33536
2016-03-07T10:50:47.654Z,32864
2016-03-07T10:51:01.263Z,32384
2016-03-07T10:51:14.907Z,32224
2016-03-07T10:51:31.548Z,31936
2016-03-07T10:51:45.376Z,32064
2016-03-07T10:52:01.157Z,32032
2016-03-07T10:52:17.926Z,33120
2016-03-07T10:52:32.097Z,33376
2016-03-07T10:52:45.847Z,32096
2016-03-07T10:52:59.551Z,31264
2016-03-07T10:53:13.131Z,30784
2016-03-07T10:53:26.553Z,30752
2016-03-07T10:53:40.178Z,30816
2016-03-07T10:53:54.021Z,30976
2016-03-07T10:54:07.818Z,31264
2016-03-07T10:54:21.743Z,31648
2016-03-07T10:54:35.321Z,32032
2016-03-07T10:54:48.977Z,32480
2016-03-07T10:55:02.759Z,32736
2016-03-07T10:55:16.401Z,32992
2016-03-07T10:55:30.370Z,33440
2016-03-07T10:55:44.323Z,34048
2016-03-07T10:55:58.573Z,34944
2016-03-07T10:56:12.417Z,36000
2016-03-07T10:56:26.093Z,36832
2016-03-07T10:56:39.718Z,37024
2016-03-07T10:56:53.280Z,37056
2016-03-07T10:57:07.312Z,37184
2016-03-07T10:57:21.017Z,37728
2016-03-07T10:57:34.642Z,38240
2016-03-07T10:58:02.485Z,39520
2016-03-07T10:58:16.223Z,37760
2016-03-07T10:58:29.832Z,36512
2016-03-07T10:58:44.567Z,35584
2016-03-07T10:58:58.363Z,35136
2016-03-07T10:59:12.035Z,35136
2016-03-07T10:59:25.678Z,35296
2016-03-07T10:59:39.304Z,35648
2016-03-07T10:59:54.463Z,36032
2016-03-07T11:00:07.885Z,36160
2016-03-07T11:00:21.613Z,35968
2016-03-07T11:00:36.673Z,35424
2016-03-07T11:00:50.782Z,34656
2016-03-07T11:01:04.407Z,34048
2016-03-07T11:01:17.832Z,33600
2016-03-07T11:01:31.723Z,33216
2016-03-07T11:01:45.582Z,32928
2016-03-07T11:01:59.629Z,32768
2016-03-07T11:02:13.223Z,32704
2016-03-07T11:02:26.871Z,32928
2016-03-07T11:02:43.314Z,33216
2016-03-07T11:03:00.712Z,33376
2016-03-07T11:03:23.056Z,33216
2016-03-07T11:03:38.853Z,33440
2016-03-07T11:03:55.572Z,33728
2016-03-07T11:04:09.275Z,34048
2016-03-07T11:04:23.027Z,34368
2016-03-07T11:04:36.980Z,34560
2016-03-07T11:04:50.730Z,34880
2016-03-07T11:05:07.543Z,35264
2016-03-07T11:05:24.155Z,35360
2016-03-07T11:05:37.858Z,34816
2016-03-07T11:06:05.764Z,34144
2016-03-07T11:06:19.719Z,34016
2016-03-07T11:06:36.329Z,33664
2016-03-07T11:06:49.532Z,33184
2016-03-07T11:07:03.282Z,32448
2016-03-07T11:07:17.254Z,32000
2016-03-07T11:07:30.972Z,31936
2016-03-07T11:07:44.707Z,31968
2016-03-07T11:07:58.488Z,32416
2016-03-07T11:08:12.629Z,32928
2016-03-07T11:08:30.085Z,33440
2016-03-07T11:08:43.397Z,33440
2016-03-07T11:08:56.991Z,33216
2016-03-07T11:09:10.960Z,32960
2016-03-07T11:09:24.869Z,32640
2016-03-07T11:09:38.557Z,32416
2016-03-07T11:09:52.307Z,32064
2016-03-07T11:10:06.057Z,31744
2016-03-07T11:10:20.028Z,31424
2016-03-07T11:10:33.997Z,31136
2016-03-07T11:10:50.606Z,30848
2016-03-07T11:11:04.185Z,30656
2016-03-07T11:11:21.171Z,30624
2016-03-07T11:11:38.296Z,30944
2016-03-07T11:11:52.046Z,32064
2016-03-07T11:12:06.187Z,32928
2016-03-07T11:12:19.596Z,33344
2016-03-07T11:12:36.440Z,33152
2016-03-07T11:12:49.986Z,32896
2016-03-07T11:13:04.143Z,32800
2016-03-07T11:13:18.193Z,32928
2016-03-07T11:13:31.755Z,33280
2016-03-07T11:13:45.568Z,33920
2016-03-07T11:13:59.146Z,34688
2016-03-07T11:14:13.380Z,35648
2016-03-07T11:14:32.945Z,36512
2016-03-07T11:14:46.695Z,36416
2016-03-07T11:15:15.226Z,35200
2016-03-07T11:15:28.837Z,34656
2016-03-07T11:15:42.556Z,34496
2016-03-07T11:15:56.728Z,34752
2016-03-07T11:16:13.290Z,34912
2016-03-07T11:16:30.121Z,35264
2016-03-07T11:16:44.293Z,35744
2016-03-07T11:16:58.075Z,36416
2016-03-07T11:17:11.668Z,37472
2016-03-07T11:17:25.374Z,38752
2016-03-07T11:17:42.421Z,39968
2016-03-07T11:17:56.281Z,41120
2016-03-07T11:18:10.156Z,41088
2016-03-07T11:18:23.784Z,40384
2016-03-07T11:18:37.643Z,39328
2016-03-07T11:18:51.659Z,37952
2016-03-07T11:19:05.752Z,36832
2016-03-07T11:19:19.504Z,36000
2016-03-07T11:19:33.129Z,35488
2016-03-07T11:19:46.848Z,34912
2016-03-07T11:20:00.598Z,34432
2016-03-07T11:20:17.411Z,33952
2016-03-07T11:20:34.101Z,33856
2016-03-07T11:20:47.773Z,33792
2016-03-07T11:21:01.945Z,33664
2016-03-07T11:21:15.867Z,33600
2016-03-07T11:21:29.510Z,33408
2016-03-07T11:21:43.167Z,33216
2016-03-07T11:21:59.839Z,32960
2016-03-07T11:22:13.807Z,32864
2016-03-07T11:22:27.809Z,32896
2016-03-07T11:22:41.856Z,33120
2016-03-07T11:22:55.731Z,33472
2016-03-07T11:23:12.622Z,34336
2016-03-07T11:23:26.266Z,35360
2016-03-07T11:23:43.188Z,36320
2016-03-07T11:24:10.985Z,37120
2016-03-07T11:24:24.643Z,37216
2016-03-07T11:24:39.112Z,37632
2016-03-07T11:24:55.862Z,38464
2016-03-07T11:25:09.956Z,39520
2016-03-07T11:25:23.520Z,40032
2016-03-07T11:25:37.520Z,39072
2016-03-07T11:25:54.208Z,37824
2016-03-07T11:26:08.114Z,36864
2016-03-07T11:26:22.102Z,35840
2016-03-07T11:26:35.695Z,34912
2016-03-07T11:27:17.273Z,34048
2016-03-07T11:27:31.292Z,34208
2016-03-07T11:27:45.136Z,34560
2016-03-07T11:27:59.089Z,35040
2016-03-07T11:28:12.714Z,35488
2016-03-07T11:28:26.247Z,36000
2016-03-07T11:28:42.778Z,36768
2016-03-07T11:28:57.107Z,37632
2016-03-07T11:29:11.075Z,38112
2016-03-07T11:29:25.328Z,37664
2016-03-07T11:29:39.016Z,36928
2016-03-07T11:29:52.891Z,35872
2016-03-07T11:30:06.703Z,34816
2016-03-07T11:30:20.253Z,33984
2016-03-07T11:30:33.972Z,33312
2016-03-07T11:30:47.675Z,32672
2016-03-07T11:31:01.613Z,32224
2016-03-07T11:31:15.550Z,31904
2016-03-07T11:31:32.131Z,31872
2016-03-07T11:31:49.287Z,32160
2016-03-07T11:32:03.178Z,32480
2016-03-07T11:32:17.397Z,32928
2016-03-07T11:32:31.336Z,33344
2016-03-07T11:32:45.336Z,33728
2016-03-07T11:32:59.071Z,34112
2016-03-07T11:33:12.696Z,34496
2016-03-07T11:33:26.464Z,34752
2016-03-07T11:33:40.199Z,34560
2016-03-07T11:33:53.792Z,34112
2016-03-07T11:34:11.136Z,33568
2016-03-07T11:34:27.967Z,33056
2016-03-07T11:34:41.780Z,32704
2016-03-07T11:34:55.577Z,32416
2016-03-07T11:35:12.358Z,32096
2016-03-07T11:35:25.938Z,31968
2016-03-07T11:35:39.594Z,32064
2016-03-07T11:35:54.188Z,32352
2016-03-07T11:36:08.079Z,32672
2016-03-07T11:36:24.769Z,33120
2016-03-07T11:36:41.613Z,33312
2016-03-07T11:36:55.410Z,33472
2016-03-07T11:37:09.363Z,33472
2016-03-07T11:37:22.975Z,33184
2016-03-07T11:37:36.569Z,32800
2016-03-07T11:37:53.178Z,32416
2016-03-07T11:38:07.069Z,31904
2016-03-07T11:38:20.853Z,31552
2016-03-07T11:38:34.463Z,31200
2016-03-07T11:38:48.822Z,30880
2016-03-07T11:39:02.556Z,30528
2016-03-07T11:39:16.478Z,30080
2016-03-07T11:39:30.137Z,29600
2016-03-07T11:39:43.855Z,29248
2016-03-07T11:39:57.746Z,29056
2016-03-07T11:40:11.621Z,28992
2016-03-07T11:40:25.701Z,29120
2016-03-07T11:40:39.717Z,29376
2016-03-07T11:40:53.482Z,29728
2016-03-07T11:41:07.248Z,30080
2016-03-07T11:41:21.018Z,30464
2016-03-07T11:41:34.721Z,30816
2016-03-07T11:42:16.393Z,31840
2016-03-07T11:42:44.285Z,32544
2016-03-07T11:43:01.207Z,32768
2016-03-07T11:43:23.929Z,32864
2016-03-07T11:43:37.507Z,32704
2016-03-07T11:43:51.273Z,32416
2016-03-07T11:44:05.101Z,32032
2016-03-07T11:44:21.743Z,31552
2016-03-07T11:44:35.821Z,31040
2016-03-07T11:44:49.571Z,30752
2016-03-07T11:45:02.400Z,30656
2016-03-07T11:45:16.212Z,30720
2016-03-07T11:45:30.138Z,30912
2016-03-07T11:45:43.794Z,31360
2016-03-07T11:45:57.404Z,31872
2016-03-07T11:46:25.687Z,33024
2016-03-07T11:46:39.406Z,33408
2016-03-07T11:46:53.077Z,34528
2016-03-07T11:47:21.126Z,34336
2016-03-07T11:47:34.876Z,34176
2016-03-07T11:48:03.064Z,34048
2016-03-07T11:48:16.736Z,33952
2016-03-07T11:48:30.787Z,33824
2016-03-07T11:48:44.521Z,33728
2016-03-07T11:48:58.130Z,33568
2016-03-07T11:49:11.755Z,33408
2016-03-07T11:49:28.726Z,33408
2016-03-07T11:49:42.304Z,33248
2016-03-07T11:49:56.304Z,33120
2016-03-07T11:50:13.304Z,33088
2016-03-07T11:50:27.197Z,32928
2016-03-07T11:50:41.494Z,32960
2016-03-07T11:50:55.134Z,33056
2016-03-07T11:51:09.197Z,33184
2016-03-07T11:51:22.748Z,33536
2016-03-07T11:51:36.904Z,33920
2016-03-07T11:51:50.404Z,33920
2016-03-07T11:52:04.060Z,33760
2016-03-07T11:52:18.966Z,33408
2016-03-07T11:52:36.079Z,32928
2016-03-07T11:52:49.969Z,32352
2016-03-07T11:53:03.798Z,31744
2016-03-07T11:53:20.565Z,31200
2016-03-07T11:53:34.237Z,30848
2016-03-07T11:53:46.675Z,30688
2016-03-07T11:54:00.221Z,30624
2016-03-07T11:54:13.737Z,30656
2016-03-07T11:54:27.536Z,30848
2016-03-07T11:54:41.192Z,31008
2016-03-07T11:54:54.895Z,31040
2016-03-07T11:55:09.348Z,30880
2016-03-07T11:55:23.367Z,30784
2016-03-07T11:55:51.508Z,30656
2016-03-07T11:56:05.039Z,30592
2016-03-07T11:56:19.167Z,30688
2016-03-07T11:56:33.042Z,30912
2016-03-07T11:56:46.651Z,31200
2016-03-07T11:57:00.511Z,31776
2016-03-07T11:57:14.479Z,32576
2016-03-07T11:57:42.481Z,34592
2016-03-07T11:57:56.138Z,35840
2016-03-07T11:58:09.888Z,36864
2016-03-07T11:58:23.406Z,37056
2016-03-07T11:58:37.250Z,36576
2016-03-07T11:58:50.938Z,35680
2016-03-07T11:59:04.578Z,34464
2016-03-07T11:59:21.409Z,33280
2016-03-07T11:59:35.331Z,32000
2016-03-07T11:59:49.159Z,31232
2016-03-07T12:00:03.019Z,30688
2016-03-07T12:00:16.722Z,30336
2016-03-07T12:00:30.334Z,30144
2016-03-07T12:00:43.990Z,30112
2016-03-07T12:00:57.522Z,30240
2016-03-07T12:01:11.444Z,30464
2016-03-07T12:01:25.275Z,30784